createdAt,value
2019-04-25T00:02:15.166Z,13.17
2019-04-25T00:04:44.629Z,11.90
2019-04-25T00:07:13.043Z,11.23
2019-04-25T00:09:44.045Z,10.53
2019-04-25T00:12:13.705Z,9.77
2019-04-25T00:14:42.516Z,10.50
2019-04-25T00:17:11.554Z,8.77
2019-04-25T00:19:40.719Z,8.70
2019-04-25T00:22:12.023Z,7.77
2019-04-25T00:24:52.044Z,7.80
2019-04-25T00:27:23.624Z,7.50
2019-04-25T00:29:51.909Z,7.70
2019-04-25T00:32:21.634Z,7.00
2019-04-25T00:34:51.799Z,6.07
2019-04-25T00:37:20.404Z,5.63
2019-04-25T00:39:49.155Z,8.70
2019-04-25T00:42:17.668Z,9.57
2019-04-25T00:44:46.102Z,8.07
2019-04-25T00:47:14.395Z,8.53
2019-04-25T00:49:44.034Z,9.83
2019-04-25T00:52:13.055Z,9.03
2019-04-25T00:54:43.078Z,8.73
2019-04-25T00:57:12.226Z,8.33
2019-04-25T00:59:48.882Z,7.60
2019-04-25T01:02:19.260Z,6.73
2019-04-25T01:04:47.735Z,6.60
2019-04-25T01:07:16.534Z,6.30
2019-04-25T01:09:45.651Z,6.23
2019-04-25T01:12:14.940Z,5.23
2019-04-25T01:14:44.272Z,4.97
2019-04-25T01:17:13.686Z,5.20
2019-04-25T01:19:44.032Z,4.47
2019-04-25T01:22:14.396Z,4.40
2019-04-25T01:24:43.925Z,4.20
2019-04-25T01:27:13.533Z,4.20
2019-04-25T01:29:42.291Z,3.90
2019-04-25T01:32:13.957Z,3.40
2019-04-25T01:35:00.484Z,3.50
2019-04-25T01:37:34.106Z,3.13
2019-04-25T01:40:06.848Z,3.77
2019-04-25T01:42:49.565Z,3.00
2019-04-25T01:45:19.278Z,3.10
2019-04-25T01:47:48.912Z,2.67
2019-04-25T01:50:17.631Z,2.83
2019-04-25T01:52:45.938Z,2.70
2019-04-25T01:55:14.819Z,2.30
2019-04-25T01:57:45.084Z,2.53
2019-04-25T02:00:15.576Z,1.83
2019-04-25T02:02:43.857Z,2.33
2019-04-25T02:05:13.941Z,2.27
2019-04-25T02:07:42.334Z,2.07
2019-04-25T02:10:10.784Z,2.00
2019-04-25T02:12:41.062Z,1.90
2019-04-25T02:15:09.708Z,2.10
2019-04-25T02:17:38.006Z,1.93
2019-04-25T02:20:06.454Z,1.80
2019-04-25T02:22:35.652Z,1.60
2019-04-25T02:25:05.700Z,1.70
2019-04-25T02:27:34.280Z,1.70
2019-04-25T02:30:04.350Z,1.60
2019-04-25T02:32:34.385Z,1.63
2019-04-25T02:35:09.138Z,1.50
2019-04-25T02:37:35.154Z,1.40
2019-04-25T02:40:07.898Z,1.33
2019-04-25T02:42:35.637Z,1.57
2019-04-25T02:45:10.865Z,1.40
2019-04-25T02:47:58.511Z,1.57
2019-04-25T02:50:34.902Z,1.20
2019-04-25T02:53:10.558Z,1.27
2019-04-25T02:55:38.939Z,1.23
2019-04-25T02:58:10.016Z,1.23
2019-04-25T03:00:51.603Z,1.40
2019-04-25T03:03:08.634Z,1.17
2019-04-25T03:05:37.434Z,1.30
2019-04-25T03:08:09.034Z,1.40
2019-04-25T03:10:36.122Z,1.00
2019-04-25T03:13:09.772Z,1.07
2019-04-25T03:15:36.498Z,1.33
2019-04-25T03:18:08.498Z,1.20
2019-04-25T03:20:39.116Z,0.83
2019-04-25T03:23:25.408Z,1.00
2019-04-25T03:25:53.680Z,1.10
2019-04-25T03:28:23.801Z,0.90
2019-04-25T03:30:54.935Z,1.10
2019-04-25T03:33:22.341Z,0.90
2019-04-25T03:35:51.034Z,0.93
2019-04-25T03:38:19.350Z,1.03
2019-04-25T03:40:47.635Z,1.23
2019-04-25T03:43:15.911Z,1.40
2019-04-25T03:45:45.293Z,0.90
2019-04-25T03:48:14.018Z,1.30
2019-04-25T03:50:44.105Z,1.03
2019-04-25T03:53:13.905Z,1.13
2019-04-25T03:55:44.025Z,1.03
2019-04-25T03:58:13.116Z,1.10
2019-04-25T04:00:44.747Z,1.20
2019-04-25T04:03:14.933Z,0.90
2019-04-25T04:05:44.109Z,0.80
2019-04-25T04:08:14.853Z,1.03
2019-04-25T04:10:43.270Z,1.00
2019-04-25T04:13:12.261Z,1.10
2019-04-25T04:15:41.074Z,0.87
2019-04-25T04:18:11.014Z,0.70
2019-04-25T04:20:57.342Z,1.10
2019-04-25T04:23:45.551Z,0.83
2019-04-25T04:26:14.506Z,1.00
2019-04-25T04:28:43.553Z,0.90
2019-04-25T04:31:12.577Z,0.80
2019-04-25T04:33:43.135Z,1.30
2019-04-25T04:36:11.591Z,1.20
2019-04-25T04:38:40.236Z,1.23
2019-04-25T04:41:09.631Z,0.87
2019-04-25T04:43:38.033Z,1.00
2019-04-25T04:46:06.331Z,0.70
2019-04-25T04:48:34.623Z,1.00
2019-04-25T04:51:03.449Z,0.90
2019-04-25T04:53:35.609Z,1.20
2019-04-25T04:56:02.246Z,0.90
2019-04-25T04:58:30.557Z,3.07
2019-04-25T05:00:59.108Z,3.60
2019-04-25T05:03:35.060Z,3.10
2019-04-25T05:06:20.545Z,4.33
2019-04-25T05:08:50.526Z,3.97
2019-04-25T05:11:19.858Z,3.73
2019-04-25T05:13:48.299Z,3.43
2019-04-25T05:16:16.590Z,4.10
2019-04-25T05:18:45.193Z,3.50
2019-04-25T05:21:15.687Z,3.00
2019-04-25T05:23:44.322Z,3.20
2019-04-25T05:26:14.890Z,3.17
2019-04-25T05:28:44.438Z,2.77
2019-04-25T05:31:18.123Z,2.70
2019-04-25T05:33:46.836Z,2.77
2019-04-25T05:36:17.206Z,2.63
2019-04-25T05:38:45.382Z,2.50
2019-04-25T05:41:16.015Z,2.43
2019-04-25T05:43:45.286Z,6.07
2019-04-25T05:46:13.558Z,4.30
2019-04-25T05:48:41.861Z,4.70
2019-04-25T05:51:10.320Z,3.70
2019-04-25T05:53:39.012Z,3.57
2019-04-25T05:56:07.572Z,4.07
2019-04-25T05:58:36.164Z,4.60
2019-04-25T06:01:04.481Z,6.13
2019-04-25T06:03:33.971Z,6.70
2019-04-25T06:06:03.401Z,5.33
2019-04-25T06:08:34.156Z,9.40
2019-04-25T06:11:17.933Z,5.87
2019-04-25T06:13:53.683Z,4.73
2019-04-25T06:16:24.236Z,5.33
2019-04-25T06:19:14.264Z,5.53
2019-04-25T06:21:36.882Z,6.30
2019-04-25T06:24:25.943Z,6.77
2019-04-25T06:26:56.297Z,6.60
2019-04-25T06:29:25.006Z,7.20
2019-04-25T06:32:04.269Z,6.40
2019-04-25T06:34:26.762Z,5.63
2019-04-25T06:36:53.725Z,5.17
2019-04-25T06:39:22.044Z,5.37
2019-04-25T06:41:50.690Z,10.50
2019-04-25T06:44:35.587Z,9.77
2019-04-25T06:47:15.114Z,6.10
2019-04-25T06:49:44.494Z,6.40
2019-04-25T06:52:13.920Z,14.27
2019-04-25T06:54:43.719Z,32.93
2019-04-25T06:57:14.026Z,31.57
2019-04-25T06:59:43.720Z,24.60
2019-04-25T07:02:13.859Z,25.03
2019-04-25T07:04:43.469Z,21.20
2019-04-25T07:07:14.831Z,21.47
2019-04-25T07:09:43.362Z,20.93
2019-04-25T07:12:13.472Z,18.77
2019-04-25T07:14:43.880Z,18.70
2019-04-25T07:17:14.140Z,17.50
2019-04-25T07:19:44.098Z,16.70
2019-04-25T07:22:13.940Z,18.73
2019-04-25T07:24:43.980Z,33.53
2019-04-25T07:27:17.313Z,39.93
2019-04-25T07:29:47.244Z,39.27
2019-04-25T07:32:33.056Z,35.23
2019-04-25T07:35:03.628Z,30.67
2019-04-25T07:37:34.253Z,37.53
2019-04-25T07:40:02.124Z,39.17
2019-04-25T07:42:30.421Z,34.43
2019-04-25T07:44:59.047Z,37.50
2019-04-25T07:47:27.434Z,37.47
2019-04-25T07:49:56.081Z,35.30
2019-04-25T07:52:24.661Z,34.80
2019-04-25T07:54:53.908Z,25.10
2019-04-25T07:57:23.800Z,32.10
2019-04-25T07:59:53.683Z,35.77
2019-04-25T08:02:23.328Z,34.90
2019-04-25T08:04:51.726Z,27.90
2019-04-25T08:07:20.435Z,29.13
2019-04-25T08:09:49.043Z,35.20
2019-04-25T08:12:17.730Z,32.73
2019-04-25T08:14:47.688Z,39.97
2019-04-25T08:17:27.184Z,30.53
2019-04-25T08:19:55.482Z,34.40
2019-04-25T08:22:24.046Z,32.60
2019-04-25T08:24:53.816Z,31.03
2019-04-25T08:27:23.178Z,29.63
2019-04-25T08:29:51.944Z,26.83
2019-04-25T08:32:20.531Z,26.07
2019-04-25T08:34:48.826Z,30.77
2019-04-25T08:37:20.953Z,25.20
2019-04-25T08:39:47.420Z,26.60
2019-04-25T08:42:15.770Z,25.50
2019-04-25T08:44:44.965Z,24.17
2019-04-25T08:47:14.461Z,24.70
2019-04-25T08:49:45.954Z,22.67
2019-04-25T08:52:14.473Z,22.40
2019-04-25T08:54:57.659Z,27.13
2019-04-25T08:57:44.458Z,30.70
2019-04-25T09:00:24.082Z,30.43
2019-04-25T09:02:57.105Z,35.80
2019-04-25T09:05:29.811Z,40.00
2019-04-25T09:07:58.464Z,38.77
2019-04-25T09:10:27.034Z,32.17
2019-04-25T09:12:55.635Z,28.30
2019-04-25T09:15:24.271Z,28.13
2019-04-25T09:17:54.720Z,26.03
2019-04-25T09:20:23.626Z,24.37
2019-04-25T09:22:54.106Z,26.93
2019-04-25T09:25:23.815Z,24.03
2019-04-25T09:27:54.192Z,24.20
2019-04-25T09:30:24.064Z,23.73
2019-04-25T09:32:53.494Z,22.60
2019-04-25T09:35:23.476Z,20.50
2019-04-25T09:37:53.580Z,19.40
2019-04-25T09:40:23.847Z,19.80
2019-04-25T09:42:53.710Z,18.67
2019-04-25T09:45:27.088Z,19.63
2019-04-25T09:47:57.305Z,25.13
2019-04-25T09:50:29.951Z,24.93
2019-04-25T09:52:58.251Z,23.67
2019-04-25T09:55:47.191Z,22.03
2019-04-25T09:58:33.859Z,20.20
2019-04-25T10:01:09.927Z,11.17
2019-04-25T10:03:38.657Z,8.97
2019-04-25T10:06:07.039Z,6.73
2019-04-25T10:08:38.685Z,4.73
2019-04-25T10:11:07.298Z,4.53
2019-04-25T10:13:35.979Z,3.47
2019-04-25T10:16:09.949Z,2.43
2019-04-25T10:18:43.701Z,3.27
2019-04-25T10:21:11.664Z,4.10
2019-04-25T10:23:42.088Z,4.00
2019-04-25T10:26:11.558Z,4.07
2019-04-25T10:28:41.547Z,2.73
2019-04-25T10:31:10.488Z,2.03
2019-04-25T10:33:39.707Z,2.50
2019-04-25T10:36:09.699Z,3.63
2019-04-25T10:38:39.341Z,3.23
2019-04-25T10:41:08.827Z,3.73
2019-04-25T10:43:37.295Z,2.53
2019-04-25T10:46:05.574Z,2.57
2019-04-25T10:48:35.500Z,1.60
2019-04-25T10:51:04.235Z,1.93
2019-04-25T10:53:33.819Z,1.70
2019-04-25T10:56:03.796Z,1.40
2019-04-25T10:58:33.798Z,1.50
2019-04-25T11:01:03.645Z,1.40
2019-04-25T11:03:33.897Z,1.20
2019-04-25T11:06:03.923Z,1.50
2019-04-25T11:08:34.092Z,1.40
2019-04-25T11:11:03.795Z,1.17
2019-04-25T11:13:35.150Z,1.43
2019-04-25T11:16:03.535Z,1.23
2019-04-25T11:18:33.918Z,1.17
2019-04-25T11:21:04.292Z,1.40
2019-04-25T11:23:32.419Z,1.20
2019-04-25T11:26:00.711Z,2.60
2019-04-25T11:28:29.244Z,6.93
2019-04-25T11:30:57.910Z,8.27
2019-04-25T11:33:26.559Z,11.17
2019-04-25T11:35:56.301Z,11.40
2019-04-25T11:38:33.891Z,13.43
2019-04-25T11:41:04.018Z,12.07
2019-04-25T11:43:33.755Z,11.70
2019-04-25T11:46:04.825Z,12.00
2019-04-25T11:48:34.026Z,12.70
2019-04-25T11:51:03.642Z,11.30
2019-04-25T11:53:33.778Z,10.80
2019-04-25T11:56:03.727Z,10.07
2019-04-25T11:58:32.689Z,9.30
2019-04-25T12:01:01.469Z,9.73
2019-04-25T12:03:30.153Z,10.03
2019-04-25T12:05:58.433Z,8.90
2019-04-25T12:08:26.712Z,8.03
2019-04-25T12:10:55.037Z,8.73
2019-04-25T12:13:24.255Z,7.10
2019-04-25T12:15:54.559Z,5.40
2019-04-25T12:18:25.552Z,4.17
2019-04-25T12:20:57.950Z,3.00
2019-04-25T12:23:26.186Z,2.90
2019-04-25T12:25:55.308Z,2.70
2019-04-25T12:28:24.129Z,2.20
2019-04-25T12:30:54.969Z,2.40
2019-04-25T12:33:23.889Z,2.23
2019-04-25T12:35:53.800Z,2.50
2019-04-25T12:38:22.531Z,2.27
2019-04-25T12:40:50.807Z,2.30
2019-04-25T12:43:19.827Z,2.23
2019-04-25T12:45:56.163Z,2.20
2019-04-25T12:48:26.127Z,2.40
2019-04-25T12:50:55.442Z,1.77
2019-04-25T12:53:24.260Z,1.80
2019-04-25T12:55:53.792Z,2.23
2019-04-25T12:58:25.295Z,1.77
2019-04-25T13:00:59.071Z,1.87
2019-04-25T13:03:27.191Z,1.90
2019-04-25T13:05:56.341Z,2.30
2019-04-25T13:08:25.274Z,3.77
2019-04-25T13:10:54.367Z,5.13
2019-04-25T13:13:24.154Z,5.60
2019-04-25T13:15:53.433Z,4.27
2019-04-25T13:18:24.070Z,5.27
2019-04-25T13:20:54.996Z,6.17
2019-04-25T13:23:23.891Z,6.57
2019-04-25T13:25:55.798Z,5.17
2019-04-25T13:28:32.272Z,4.20
2019-04-25T13:31:17.372Z,3.80
2019-04-25T13:33:52.170Z,4.40
2019-04-25T13:36:24.027Z,4.00
2019-04-25T13:38:57.072Z,4.77
2019-04-25T13:41:25.818Z,4.87
2019-04-25T13:43:54.726Z,4.93
2019-04-25T13:46:26.116Z,6.87
2019-04-25T13:48:54.346Z,18.97
2019-04-25T13:51:24.596Z,17.17
2019-04-25T13:53:54.482Z,7.20
2019-04-25T13:56:25.105Z,11.87
2019-04-25T13:58:55.874Z,13.47
2019-04-25T14:01:27.696Z,15.23
2019-04-25T14:03:56.380Z,12.93
2019-04-25T14:06:28.384Z,14.60
2019-04-25T14:08:57.128Z,15.50
2019-04-25T14:11:25.952Z,13.10
2019-04-25T14:13:54.648Z,11.73
2019-04-25T14:16:36.860Z,11.27
2019-04-25T14:19:07.131Z,15.50
2019-04-25T14:21:35.582Z,12.00
2019-04-25T14:24:04.457Z,11.00
2019-04-25T14:26:33.086Z,10.30
2019-04-25T14:29:01.684Z,10.17
2019-04-25T14:31:41.452Z,11.23
2019-04-25T14:34:00.416Z,11.27
2019-04-25T14:36:28.822Z,11.17
2019-04-25T14:38:57.440Z,10.70
2019-04-25T14:41:26.087Z,12.10
2019-04-25T14:43:54.817Z,10.43
2019-04-25T14:46:23.397Z,10.50
2019-04-25T14:48:51.707Z,15.20
2019-04-25T14:51:20.111Z,15.07
2019-04-25T14:53:48.732Z,12.47
2019-04-25T14:56:35.766Z,14.50
2019-04-25T14:59:05.702Z,18.57
2019-04-25T15:01:44.554Z,17.87
2019-04-25T15:04:04.675Z,13.47
2019-04-25T15:06:33.262Z,13.93
2019-04-25T15:09:01.624Z,13.03
2019-04-25T15:11:29.922Z,11.03
2019-04-25T15:13:58.283Z,13.07
2019-04-25T15:16:27.081Z,9.40
2019-04-25T15:18:55.775Z,12.13
2019-04-25T15:21:25.184Z,13.53
2019-04-25T15:24:00.234Z,10.90
2019-04-25T15:26:24.770Z,11.40
2019-04-25T15:28:53.439Z,8.97
2019-04-25T15:31:22.072Z,10.17
2019-04-25T15:33:50.467Z,7.90
2019-04-25T15:36:23.628Z,9.20
2019-04-25T15:38:57.545Z,10.17
2019-04-25T15:41:33.712Z,10.43
2019-04-25T15:44:06.301Z,11.50
2019-04-25T15:46:36.244Z,8.07
2019-04-25T15:49:04.878Z,7.93
2019-04-25T15:51:33.187Z,7.43
2019-04-25T15:54:01.480Z,7.70
2019-04-25T15:56:30.309Z,8.70
2019-04-25T15:58:58.914Z,8.03
2019-04-25T16:01:28.318Z,8.27
2019-04-25T16:03:57.008Z,11.90
2019-04-25T16:06:26.599Z,10.77
2019-04-25T16:08:55.201Z,9.73
2019-04-25T16:11:23.475Z,11.17
2019-04-25T16:13:51.791Z,18.77
2019-04-25T16:16:20.430Z,17.87
2019-04-25T16:18:49.016Z,15.70
2019-04-25T16:21:17.649Z,16.10
2019-04-25T16:23:45.966Z,17.20
2019-04-25T16:26:16.009Z,16.73
2019-04-25T16:28:44.578Z,16.83
2019-04-25T16:31:14.824Z,14.93
2019-04-25T16:33:43.491Z,14.97
2019-04-25T16:36:12.071Z,14.73
2019-04-25T16:38:41.067Z,15.40
2019-04-25T16:41:11.365Z,14.53
2019-04-25T16:43:41.303Z,15.13
2019-04-25T16:46:09.895Z,13.40
2019-04-25T16:48:39.055Z,14.93
2019-04-25T16:51:08.055Z,13.00
2019-04-25T16:53:36.666Z,14.40
2019-04-25T16:56:05.559Z,14.27
2019-04-25T16:58:34.138Z,12.50
2019-04-25T17:01:04.169Z,13.00
2019-04-25T17:03:33.035Z,13.53
2019-04-25T17:06:01.475Z,15.67
2019-04-25T17:08:31.012Z,15.87
2019-04-25T17:10:59.942Z,16.57
2019-04-25T17:13:31.135Z,16.60
2019-04-25T17:16:11.039Z,18.90
2019-04-25T17:18:47.071Z,16.30
2019-04-25T17:21:15.401Z,18.50
2019-04-25T17:23:44.067Z,16.30
2019-04-25T17:26:13.344Z,16.03
2019-04-25T17:28:43.288Z,15.20
2019-04-25T17:31:28.240Z,15.83
2019-04-25T17:33:58.558Z,32.87
2019-04-25T17:36:35.714Z,24.57
2019-04-25T17:39:26.226Z,19.97
2019-04-25T17:41:54.819Z,20.37
2019-04-25T17:44:23.118Z,20.83
2019-04-25T17:46:51.588Z,21.97
2019-04-25T17:49:19.901Z,21.30
2019-04-25T17:51:48.205Z,21.60
2019-04-25T17:54:18.430Z,20.37
2019-04-25T17:56:47.008Z,22.40
2019-04-25T17:59:15.601Z,22.97
2019-04-25T18:01:44.349Z,22.10
2019-04-25T18:04:13.070Z,20.03
2019-04-25T18:06:42.105Z,19.17
2019-04-25T18:09:10.850Z,23.00
2019-04-25T18:11:40.116Z,21.77
2019-04-25T18:14:08.636Z,20.30
2019-04-25T18:16:42.321Z,19.80
2019-04-25T18:19:18.376Z,19.33
2019-04-25T18:21:46.667Z,18.33
2019-04-25T18:24:35.249Z,19.03
2019-04-25T18:27:07.744Z,20.57
2019-04-25T18:29:37.359Z,19.63
2019-04-25T18:32:06.130Z,19.07
2019-04-25T18:34:48.082Z,17.53
2019-04-25T18:37:23.730Z,17.83
2019-04-25T18:39:53.962Z,18.03
2019-04-25T18:42:39.908Z,18.67
2019-04-25T18:45:10.277Z,17.00
2019-04-25T18:47:38.859Z,18.77
2019-04-25T18:50:08.665Z,19.03
2019-04-25T18:52:45.079Z,18.23
2019-04-25T18:55:31.862Z,17.43
2019-04-25T18:58:02.076Z,17.60
2019-04-25T19:00:32.016Z,19.53
2019-04-25T19:03:22.473Z,20.53
2019-04-25T19:05:45.861Z,21.17
2019-04-25T19:08:14.286Z,21.37
2019-04-25T19:10:42.907Z,19.77
2019-04-25T19:13:12.843Z,20.53
2019-04-25T19:15:43.011Z,19.67
2019-04-25T19:18:11.493Z,19.07
2019-04-25T19:20:40.019Z,18.33
2019-04-25T19:23:08.703Z,20.00
2019-04-25T19:25:37.287Z,19.53
2019-04-25T19:28:05.570Z,17.53
2019-04-25T19:30:34.148Z,17.27
2019-04-25T19:33:02.438Z,17.87
2019-04-25T19:35:31.012Z,19.60
2019-04-25T19:38:00.967Z,19.33
2019-04-25T19:40:36.898Z,19.17
2019-04-25T19:43:12.941Z,20.10
2019-04-25T19:45:42.531Z,20.53
2019-04-25T19:48:10.987Z,20.40
2019-04-25T19:50:40.687Z,20.70
2019-04-25T19:53:09.635Z,19.93
2019-04-25T19:55:38.214Z,20.33
2019-04-25T19:58:06.508Z,20.93
2019-04-25T20:00:37.008Z,20.93
2019-04-25T20:03:06.732Z,20.60
2019-04-25T20:05:55.089Z,19.83
2019-04-25T20:08:25.307Z,18.80
2019-04-25T20:10:58.128Z,18.50
2019-04-25T20:13:26.437Z,21.03
2019-04-25T20:15:55.053Z,18.67
2019-04-25T20:18:23.371Z,19.07
2019-04-25T20:20:52.091Z,15.73
2019-04-25T20:23:20.792Z,16.77
2019-04-25T20:25:49.103Z,19.23
2019-04-25T20:28:17.659Z,19.93
2019-04-25T20:30:47.036Z,18.87
2019-04-25T20:33:15.511Z,19.57
2019-04-25T20:35:44.869Z,20.20
2019-04-25T20:38:13.834Z,17.83
2019-04-25T20:40:42.188Z,18.77
2019-04-25T20:43:10.566Z,16.77
2019-04-25T20:45:39.171Z,18.30
2019-04-25T20:48:07.755Z,18.10
2019-04-25T20:50:36.058Z,17.23
2019-04-25T20:53:04.451Z,16.93
2019-04-25T20:55:33.105Z,16.27
2019-04-25T20:58:01.487Z,15.90
2019-04-25T21:00:40.040Z,17.43
2019-04-25T21:03:08.993Z,15.93
2019-04-25T21:05:37.400Z,15.37
2019-04-25T21:08:06.074Z,14.60
2019-04-25T21:10:34.678Z,15.37
2019-04-25T21:13:04.622Z,12.33
2019-04-25T21:15:40.514Z,13.00
2019-04-25T21:18:15.968Z,10.47
2019-04-25T21:20:44.292Z,11.37
2019-04-25T21:23:12.667Z,19.87
2019-04-25T21:25:41.290Z,29.47
2019-04-25T21:28:09.894Z,27.27
2019-04-25T21:30:38.476Z,51.50
2019-04-25T21:33:07.188Z,47.50
2019-04-25T21:35:36.350Z,50.23
2019-04-25T21:38:04.924Z,55.13
2019-04-25T21:40:51.390Z,59.90
2019-04-25T21:43:21.960Z,62.77
2019-04-25T21:45:50.559Z,60.80
2019-04-25T21:48:20.660Z,60.23
2019-04-25T21:50:49.261Z,58.80
2019-04-25T21:53:18.138Z,61.10
2019-04-25T21:55:47.032Z,57.23
2019-04-25T21:58:15.705Z,53.90
2019-04-25T22:00:52.292Z,51.53
2019-04-25T22:03:22.630Z,45.73
2019-04-25T22:05:51.512Z,45.77
2019-04-25T22:08:20.179Z,48.27
2019-04-25T22:10:48.792Z,46.03
2019-04-25T22:13:17.679Z,47.00
2019-04-25T22:15:47.101Z,44.53
2019-04-25T22:18:16.057Z,46.20
2019-04-25T22:20:44.737Z,44.80
2019-04-25T22:23:13.403Z,44.03
2019-04-25T22:25:42.050Z,44.03
2019-04-25T22:28:10.776Z,45.60
2019-04-25T22:30:41.032Z,44.90
2019-04-25T22:33:13.424Z,45.60
2019-04-25T22:35:46.275Z,46.30
2019-04-25T22:38:15.276Z,46.23
2019-04-25T22:40:43.594Z,45.47
2019-04-25T22:43:12.359Z,44.80
2019-04-25T22:45:41.327Z,44.80
2019-04-25T22:48:09.962Z,46.73
2019-04-25T22:50:39.537Z,44.00
2019-04-25T22:53:08.303Z,43.00
2019-04-25T22:55:38.173Z,43.70
2019-04-25T22:58:07.622Z,41.17
2019-04-25T23:00:37.742Z,42.93
2019-04-25T23:03:11.431Z,40.73
2019-04-25T23:05:41.796Z,37.83
2019-04-25T23:08:10.767Z,36.50
2019-04-25T23:10:39.070Z,42.83
2019-04-25T23:13:08.738Z,46.23
2019-04-25T23:15:37.253Z,46.43
2019-04-25T23:18:06.946Z,45.07
2019-04-25T23:20:35.838Z,46.27
2019-04-25T23:23:04.754Z,45.63
2019-04-25T23:25:36.079Z,47.70
2019-04-25T23:28:06.424Z,44.77
2019-04-25T23:30:37.358Z,44.27
2019-04-25T23:33:06.791Z,46.50
2019-04-25T23:35:35.838Z,47.10
2019-04-25T23:38:05.690Z,45.03
2019-04-25T23:40:34.227Z,45.20
2019-04-25T23:43:02.911Z,43.13
2019-04-25T23:45:31.508Z,40.10
2019-04-25T23:48:00.081Z,40.07
2019-04-25T23:50:29.078Z,40.87
2019-04-25T23:52:57.675Z,43.07
2019-04-25T23:55:26.662Z,41.13
2019-04-25T23:57:55.247Z,40.93
